Time;durP1;ratioP1;P1;durP2;ratioP2;P2;SDS_P1;SDS_P2;PMS_P1;PMS_P2;Temp;Humidity;BMP_temperature;BMP_pressure;BME280_temperature;BME280_humidity;BME280_pressure;Samples;Min_cycle;Max_cycle;Signal;HPM_P1;HPM_P2
2021/11/07 00:01:25;;;;;;;;;10.50;8.00;;;;;21.89;37.90;102161.47;4971064;28;51398;-55
2021/11/07 00:05:55;;;;;;;;;8.75;7.75;;;;;21.78;38.25;102167.50;4969352;28;51103;-56
2021/11/07 00:10:53;;;;;;;;;10.25;9.00;;;;;21.74;38.21;102178.09;4970725;28;51926;-54
2021/11/07 00:13:24;;;;;;;;;10.00;9.00;;;;;21.77;38.42;102179.59;4953069;28;51214;-55
2021/11/07 00:15:50;;;;;;;;;10.00;9.00;;;;;21.82;38.29;102166.09;4971719;28;51137;-55
2021/11/07 00:18:25;;;;;;;;;13.50;10.00;;;;;21.86;38.13;102165.47;4958720;28;51137;-55
2021/11/07 00:20:54;;;;;;;;;13.75;9.75;;;;;21.90;38.39;102155.75;4971776;28;51405;-54
2021/11/07 00:23:30;;;;;;;;;12.00;11.75;;;;;21.97;38.17;102152.19;4965355;28;51225;-54
2021/11/07 00:31:28;;;;;;;;;11.25;8.25;;;;;22.06;38.14;102140.81;4970440;28;51436;-56
2021/11/07 00:37:10;;;;;;;;;9.00;8.50;;;;;22.02;37.87;102146.94;4969647;28;51070;-55
2021/11/07 00:44:52;;;;;;;;;9.25;9.25;;;;;21.87;38.48;102147.88;4971035;28;51058;-55
2021/11/07 00:50:02;;;;;;;;;12.75;8.50;;;;;21.76;38.25;102142.91;4960589;28;50978;-56
2021/11/07 00:52:49;;;;;;;;;12.50;9.75;;;;;21.72;38.50;102149.03;4971841;28;51387;-55
2021/11/07 00:55:27;;;;;;;;;8.25;8.00;;;;;21.69;38.63;102146.69;4955944;28;51183;-56
2021/11/07 00:57:58;;;;;;;;;10.25;9.00;;;;;21.65;38.61;102154.47;4960690;28;51149;-54
2021/11/07 01:00:37;;;;;;;;;7.50;7.50;;;;;21.63;38.22;102140.03;4962809;28;51905;-57
2021/11/07 01:03:09;;;;;;;;;11.00;8.00;;;;;21.58;38.48;102126.00;4974825;28;51404;-57
2021/11/07 01:05:35;;;;;;;;;9.00;8.00;;;;;21.55;38.40;102120.88;4975062;28;51456;-56
2021/11/07 01:08:01;;;;;;;;;9.75;9.75;;;;;21.53;38.84;102117.47;4965737;28;50969;-55
2021/11/07 01:10:28;;;;;;;;;9.75;7.50;;;;;21.47;38.47;102108.09;4959847;28;51011;-57
2021/11/07 01:12:54;;;;;;;;;9.25;9.25;;;;;21.45;38.57;102104.66;4963158;28;51200;-55
2021/11/07 01:15:21;;;;;;;;;10.75;8.75;;;;;21.42;38.64;102104.22;4956235;27;51131;-56
2021/11/07 01:17:47;;;;;;;;;8.00;7.25;;;;;21.39;38.77;102105.47;4955670;28;51021;-56
2021/11/07 01:20:14;;;;;;;;;9.25;9.25;;;;;21.36;38.62;102105.00;4955839;28;51895;-56
2021/11/07 01:25:26;;;;;;;;;5.75;5.75;;;;;21.28;38.71;102089.47;4955459;28;51033;-56
2021/11/07 01:27:53;;;;;;;;;10.75;8.25;;;;;21.24;38.97;102086.22;4977064;28;50978;-55
2021/11/07 01:30:23;;;;;;;;;7.50;7.25;;;;;21.20;39.07;102082.16;4970710;28;51749;-56
2021/11/07 01:32:57;;;;;;;;;5.75;5.75;;;;;21.16;38.65;102069.84;4962638;28;51112;-54
2021/11/07 01:37:57;;;;;;;;;8.00;8.00;;;;;21.10;39.07;102062.34;4957892;28;50947;-56
2021/11/07 01:40:28;;;;;;;;;8.25;7.50;;;;;21.07;38.86;102056.38;4954932;28;51865;-56
2021/11/07 01:42:56;;;;;;;;;9.25;5.50;;;;;21.04;38.87;102039.19;4954845;28;51170;-55
2021/11/07 01:45:30;;;;;;;;;7.00;7.00;;;;;21.02;38.95;102037.69;4970693;28;51058;-56
2021/11/07 01:48:14;;;;;;;;;6.25;6.25;;;;;20.99;39.37;102040.84;4955466;28;51106;-55
2021/11/07 01:50:44;;;;;;;;;8.50;7.00;;;;;20.96;39.32;102035.72;4955789;28;51941;-54
2021/11/07 01:55:50;;;;;;;;;8.00;7.25;;;;;20.90;39.34;102034.59;4972914;28;51044;-57
2021/11/07 01:58:15;;;;;;;;;5.50;5.50;;;;;20.89;39.15;102038.41;4968897;28;51029;-57
2021/11/07 02:00:42;;;;;;;;;6.25;6.00;;;;;20.87;39.20;102036.91;4969241;28;51143;-55
2021/11/07 02:03:09;;;;;;;;;5.25;5.25;;;;;20.85;39.54;102042.63;4970017;28;51419;-60
2021/11/07 02:05:35;;;;;;;;;7.25;5.25;;;;;20.83;39.25;102038.31;4971165;28;51009;-57
2021/11/07 02:08:03;;;;;;;;;7.00;6.50;;;;;20.82;39.56;102033.88;4998430;28;50979;-55
2021/11/07 02:10:29;;;;;;;;;6.00;5.75;;;;;20.79;39.24;102031.50;4955167;28;52623;-55
2021/11/07 02:12:55;;;;;;;;;8.75;6.75;;;;;20.77;39.36;102034.47;4955389;28;51117;-56
2021/11/07 02:15:20;;;;;;;;;5.75;5.75;;;;;20.75;39.58;102026.41;4973045;28;51978;-55
2021/11/07 02:17:46;;;;;;;;;6.00;5.00;;;;;20.73;39.78;102028.47;4972337;28;51233;-56
2021/11/07 02:20:20;;;;;;;;;6.75;5.00;;;;;20.71;39.85;102027.84;4955160;28;52024;-55
2021/11/07 02:22:46;;;;;;;;;5.00;5.00;;;;;20.70;39.57;102015.13;4963624;28;51484;-57
2021/11/07 02:25:11;;;;;;;;;6.50;6.00;;;;;20.69;39.51;102018.06;4955259;28;51184;-56
2021/11/07 02:27:37;;;;;;;;;4.25;4.25;;;;;20.67;39.49;102025.69;4967982;28;51289;-56
2021/11/07 02:30:05;;;;;;;;;5.00;4.00;;;;;20.66;39.68;102023.97;4973546;28;51575;-56
2021/11/07 02:32:30;;;;;;;;;5.00;4.00;;;;;20.65;39.53;102025.03;4974669;28;51053;-56
2021/11/07 02:34:56;;;;;;;;;4.00;4.00;;;;;20.63;39.39;102010.56;4956051;28;51222;-56
2021/11/07 02:37:22;;;;;;;;;5.50;5.50;;;;;20.62;39.59;102011.63;4970402;28;51069;-55
2021/11/07 02:39:47;;;;;;;;;5.25;5.00;;;;;20.59;39.99;101999.13;4968528;28;51660;-57
2021/11/07 02:42:13;;;;;;;;;7.00;6.00;;;;;20.57;40.07;102001.22;4954757;28;51134;-56
2021/11/07 02:44:42;;;;;;;;;3.50;3.00;;;;;20.57;39.89;102003.97;4957200;28;51224;-57
2021/11/07 02:47:10;;;;;;;;;3.50;3.50;;;;;20.55;39.98;101996.97;4974715;28;51300;-56
2021/11/07 02:49:36;;;;;;;;;5.00;5.00;;;;;20.54;40.07;101993.34;4970438;28;51894;-56
2021/11/07 02:52:04;;;;;;;;;6.50;3.50;;;;;20.54;39.63;101989.75;4958546;28;50890;-56
2021/11/07 02:54:30;;;;;;;;;5.00;4.75;;;;;20.53;39.95;101988.03;4954918;28;51061;-56
2021/11/07 02:56:57;;;;;;;;;4.00;3.00;;;;;20.51;39.97;101988.22;4955104;28;51165;-56
2021/11/07 02:59:28;;;;;;;;;3.50;3.00;;;;;20.50;39.96;101978.25;4956451;28;52683;-56
2021/11/07 03:01:55;;;;;;;;;3.00;3.00;;;;;20.49;40.07;101978.47;4971034;28;51154;-56
2021/11/07 03:04:22;;;;;;;;;5.25;4.75;;;;;20.47;40.18;101984.16;4959816;28;51048;-58
2021/11/07 03:06:47;;;;;;;;;4.75;4.00;;;;;20.45;40.12;101976.09;4959983;28;51078;-54
2021/11/07 03:09:17;;;;;;;;;3.50;3.00;;;;;20.44;40.02;101976.31;5068315;28;51777;-55
2021/11/07 03:11:43;;;;;;;;;5.00;3.00;;;;;20.44;40.50;101976.31;4983528;28;51278;-55
2021/11/07 03:14:12;;;;;;;;;4.25;3.25;;;;;20.42;40.35;101972.84;4972299;28;51134;-56
2021/11/07 03:16:38;;;;;;;;;4.50;3.00;;;;;20.41;40.29;101976.63;4962334;28;51023;-57
2021/11/07 03:19:03;;;;;;;;;4.25;4.25;;;;;20.40;40.55;101966.69;4954530;28;51756;-56
2021/11/07 03:21:28;;;;;;;;;5.00;3.25;;;;;20.39;40.17;101967.72;4954749;28;50924;-55
2021/11/07 03:23:54;;;;;;;;;6.00;4.25;;;;;20.38;40.13;101968.78;4960545;28;51121;-55
2021/11/07 03:26:25;;;;;;;;;3.00;3.00;;;;;20.36;40.25;101959.88;4978452;28;51121;-56
2021/11/07 03:28:55;;;;;;;;;4.00;4.00;;;;;20.36;40.33;101968.13;4974415;28;52001;-55
2021/11/07 03:34:10;;;;;;;;;5.00;5.00;;;;;20.34;40.17;101956.47;4954641;28;51179;-55
2021/11/07 03:36:50;;;;;;;;;4.00;4.00;;;;;20.32;40.35;101961.28;4961816;28;51042;-55
2021/11/07 03:39:16;;;;;;;;;4.50;4.50;;;;;20.32;40.32;101964.03;4954406;28;52891;-55
2021/11/07 03:41:44;;;;;;;;;4.00;4.00;;;;;20.29;40.65;101954.28;4954367;28;51154;-55
2021/11/07 03:44:11;;;;;;;;;3.75;3.75;;;;;20.30;40.60;101960.63;4955663;28;51212;-55
2021/11/07 03:46:39;;;;;;;;;3.00;3.00;;;;;20.28;40.75;101955.34;4967347;28;51071;-54
2021/11/07 03:49:06;;;;;;;;;3.75;3.25;;;;;20.27;40.78;101959.13;4969909;28;51034;-56
2021/11/07 03:51:32;;;;;;;;;1.75;1.75;;;;;20.26;40.25;101954.69;4959850;28;51254;-55
2021/11/07 03:53:58;;;;;;;;;4.00;4.00;;;;;20.26;40.63;101954.69;4955062;28;51189;-55
2021/11/07 03:56:25;;;;;;;;;2.00;2.00;;;;;20.24;40.38;101951.28;4958932;28;51111;-56
2021/11/07 03:58:51;;;;;;;;;4.00;4.00;;;;;20.23;40.48;101960.59;4966958;28;52318;-56
2021/11/07 04:01:16;;;;;;;;;2.00;2.00;;;;;20.23;40.82;101959.72;4970078;28;51289;-55
2021/11/07 04:03:41;;;;;;;;;3.00;3.00;;;;;20.23;40.89;101960.59;4973822;28;51722;-53
2021/11/07 04:06:07;;;;;;;;;3.25;3.00;;;;;20.23;40.71;101956.97;4974106;28;50976;-55
2021/11/07 04:08:32;;;;;;;;;3.00;3.00;;;;;20.22;40.73;101956.13;4968429;28;52064;-57
2021/11/07 04:10:58;;;;;;;;;5.00;3.50;;;;;20.21;40.93;101954.41;4998872;27;51063;-55
2021/11/07 04:13:23;;;;;;;;;3.00;2.75;;;;;20.19;40.75;101943.59;4973661;28;51098;-56
2021/11/07 04:15:49;;;;;;;;;3.00;3.00;;;;;20.18;40.92;101944.63;4973295;28;50917;-57
2021/11/07 04:18:14;;;;;;;;;4.75;3.75;;;;;20.17;41.06;101940.19;4967635;28;51875;-54
2021/11/07 04:20:40;;;;;;;;;4.00;3.50;;;;;20.16;40.69;101938.47;4953863;28;50935;-56
2021/11/07 04:23:06;;;;;;;;;4.25;4.25;;;;;20.15;41.05;101938.69;4956813;28;51093;-55
2021/11/07 04:25:31;;;;;;;;;3.75;3.75;;;;;20.15;40.96;101936.78;4972702;28;51409;-56
2021/11/07 04:27:57;;;;;;;;;4.00;3.50;;;;;20.14;41.16;101928.72;4986244;28;51847;-56
2021/11/07 04:30:23;;;;;;;;;3.00;3.00;;;;;20.13;41.01;101933.38;4973439;28;51120;-55
2021/11/07 04:32:48;;;;;;;;;2.25;2.25;;;;;20.12;40.75;101939.94;4973505;28;51111;-55
2021/11/07 04:35:14;;;;;;;;;5.00;3.00;;;;;20.11;41.24;101932.72;4956825;28;51418;-56
2021/11/07 04:37:42;;;;;;;;;3.00;3.00;;;;;20.11;41.01;101924.47;4957601;28;52044;-56
2021/11/07 04:40:11;;;;;;;;;3.00;3.00;;;;;20.10;40.81;101928.25;4953835;28;51035;-55
2021/11/07 04:42:37;;;;;;;;;1.00;1.00;;;;;20.10;40.84;101930.16;4954549;28;51083;-55
2021/11/07 04:45:04;;;;;;;;;3.75;3.50;;;;;20.09;41.09;101928.44;4973932;28;51278;-56
2021/11/07 04:47:29;;;;;;;;;2.00;2.00;;;;;20.09;41.14;101925.69;4953584;28;51977;-55
2021/11/07 04:49:54;;;;;;;;;4.00;3.00;;;;;20.08;40.84;101924.00;4953884;28;51187;-55
2021/11/07 04:52:21;;;;;;;;;2.50;2.50;;;;;20.06;41.14;101923.34;4960683;28;51242;-55
2021/11/07 04:54:47;;;;;;;;;3.00;3.00;;;;;20.05;41.35;101914.22;4960186;28;51163;-58
2021/11/07 04:57:13;;;;;;;;;2.00;1.75;;;;;20.04;41.33;101907.03;4963337;28;51006;-54
2021/11/07 04:59:38;;;;;;;;;5.00;3.00;;;;;20.04;41.15;101897.94;4971198;28;51331;-57
2021/11/07 05:02:04;;;;;;;;;3.00;3.00;;;;;20.03;41.40;101891.56;4970354;28;50969;-55
2021/11/07 05:04:29;;;;;;;;;4.25;3.00;;;;;20.03;41.23;101899.84;4966780;28;51008;-56
2021/11/07 05:06:55;;;;;;;;;2.25;2.25;;;;;20.03;41.17;101898.97;4965214;28;51671;-56
2021/11/07 05:09:21;;;;;;;;;1.50;1.50;;;;;20.02;41.07;101889.88;5004759;28;51046;-55
2021/11/07 05:11:47;;;;;;;;;3.75;2.50;;;;;20.01;41.42;101881.78;5075031;27;50961;-56
2021/11/07 05:14:13;;;;;;;;;3.75;3.75;;;;;20.01;41.24;101890.94;5054724;27;51067;-55
2021/11/07 05:16:38;;;;;;;;;2.75;2.75;;;;;20.00;41.42;101889.19;4963054;28;51137;-56
2021/11/07 05:19:04;;;;;;;;;3.50;3.50;;;;;20.01;41.44;101879.03;4953279;28;51005;-55
2021/11/07 05:21:30;;;;;;;;;2.00;2.00;;;;;19.99;41.35;101875.63;4953404;28;51092;-56
2021/11/07 05:23:56;;;;;;;;;2.00;2.00;;;;;19.97;41.54;101867.59;4968613;28;51034;-56
2021/11/07 05:26:21;;;;;;;;;2.50;2.50;;;;;19.97;41.13;101873.09;4961472;28;51785;-55
2021/11/07 05:28:47;;;;;;;;;3.00;3.00;;;;;19.96;41.27;101885.13;4970843;28;51220;-54
2021/11/07 05:31:12;;;;;;;;;1.50;1.50;;;;;19.96;41.31;101874.13;4974693;28;51302;-55
2021/11/07 05:33:39;;;;;;;;;5.75;3.00;;;;;19.95;41.18;101879.84;4974521;28;50981;-55
2021/11/07 05:36:04;;;;;;;;;2.75;2.75;;;;;19.95;41.44;101875.19;4975365;28;51684;-54
2021/11/07 05:38:29;;;;;;;;;3.50;2.00;;;;;19.94;41.38;101876.25;4975556;28;50952;-55
2021/11/07 05:40:55;;;;;;;;;4.00;3.00;;;;;19.93;41.55;101871.78;4959074;28;51060;-53
2021/11/07 05:43:21;;;;;;;;;4.00;3.50;;;;;19.92;41.61;101861.84;4975386;28;50981;-55
2021/11/07 05:45:48;;;;;;;;;2.00;2.00;;;;;19.92;41.09;101859.09;4975146;28;51955;-55
2021/11/07 05:48:13;;;;;;;;;2.25;2.00;;;;;19.92;41.68;101858.22;4975667;28;51394;-55
2021/11/07 05:50:40;;;;;;;;;4.00;3.50;;;;;19.91;41.48;101864.78;4963688;28;51245;-55
2021/11/07 05:53:06;;;;;;;;;2.75;2.75;;;;;19.89;41.21;101859.44;4955873;28;51214;-55
2021/11/07 05:55:31;;;;;;;;;1.50;1.00;;;;;19.88;41.23;101850.34;4955489;28;50978;-56
2021/11/07 05:57:57;;;;;;;;;3.00;3.00;;;;;19.88;41.55;101850.34;4955678;28;51069;-56
2021/11/07 06:00:23;;;;;;;;;4.00;2.25;;;;;19.88;41.64;101860.50;4966328;28;51372;-55
2021/11/07 06:02:48;;;;;;;;;4.00;2.50;;;;;19.87;41.55;101859.66;4968982;28;51161;-54
2021/11/07 06:05:15;;;;;;;;;2.25;2.25;;;;;19.86;41.66;101871.69;4955662;28;51358;-56
2021/11/07 06:07:41;;;;;;;;;2.00;2.00;;;;;19.85;41.52;101867.25;4957501;28;51050;-55
2021/11/07 06:10:07;;;;;;;;;2.25;2.25;;;;;19.85;41.69;101863.66;5001216;28;51256;-55
2021/11/07 06:12:32;;;;;;;;;2.25;2.25;;;;;19.84;41.59;101871.03;5057149;27;51376;-57
2021/11/07 06:14:58;;;;;;;;;3.25;3.25;;;;;19.84;41.49;101875.69;4956107;28;51109;-55
2021/11/07 06:17:23;;;;;;;;;4.00;3.00;;;;;19.83;41.43;101880.34;4975148;28;51035;-55
2021/11/07 06:19:49;;;;;;;;;3.00;3.00;;;;;19.83;41.43;101876.75;4958668;28;51211;-54
2021/11/07 06:22:15;;;;;;;;;2.00;2.00;;;;;19.82;41.66;101883.28;4959759;28;51290;-54
2021/11/07 06:24:40;;;;;;;;;1.75;1.75;;;;;19.81;41.70;101881.59;4974708;28;51678;-55
2021/11/07 06:27:06;;;;;;;;;3.25;3.00;;;;;19.81;41.43;101874.19;4977895;28;51056;-55
2021/11/07 06:29:32;;;;;;;;;2.00;2.00;;;;;19.81;41.79;101870.59;4956999;28;51028;-55
2021/11/07 06:31:58;;;;;;;;;2.00;2.00;;;;;19.79;41.38;101869.91;4955616;28;51107;-55
2021/11/07 06:34:28;;;;;;;;;2.75;2.75;;;;;19.79;41.57;101875.41;4955249;28;51757;-55
2021/11/07 06:36:54;;;;;;;;;4.75;2.00;;;;;19.79;41.50;101875.41;4959289;28;51188;-56
2021/11/07 06:39:21;;;;;;;;;2.00;2.00;;;;;19.78;41.74;101865.44;4969898;28;51869;-56
2021/11/07 06:41:46;;;;;;;;;3.00;3.00;;;;;19.77;41.82;101859.09;4974454;28;51430;-56
2021/11/07 06:44:14;;;;;;;;;1.50;1.50;;;;;19.76;41.57;101860.16;4963101;28;51878;-55
2021/11/07 06:46:39;;;;;;;;;2.00;2.00;;;;;19.75;41.77;101861.19;4956516;28;51018;-56
2021/11/07 06:49:08;;;;;;;;;1.75;1.75;;;;;19.75;41.93;101847.47;4973781;28;51169;-55
2021/11/07 06:51:33;;;;;;;;;3.00;2.25;;;;;19.75;41.77;101857.59;4968387;28;51091;-55
2021/11/07 06:53:59;;;;;;;;;3.00;3.00;;;;;19.73;41.62;101851.44;4968839;28;51166;-55
2021/11/07 06:56:25;;;;;;;;;2.50;2.50;;;;;19.73;41.73;101849.56;4944704;28;51147;-56
2021/11/07 06:58:50;;;;;;;;;2.00;2.00;;;;;19.74;41.69;101858.66;4964641;28;51375;-56
2021/11/07 07:01:16;;;;;;;;;5.50;2.75;;;;;19.72;41.96;101861.59;4960144;28;51170;-57
2021/11/07 07:03:41;;;;;;;;;3.00;2.25;;;;;19.72;41.84;101855.25;4954615;28;52253;-57
2021/11/07 07:06:07;;;;;;;;;2.00;2.00;;;;;19.72;42.10;101849.75;4954932;28;51058;-57
2021/11/07 07:08:45;;;;;;;;;2.50;2.50;;;;;19.72;42.12;101841.50;4956896;28;51099;-58
2021/11/07 07:11:14;;;;;;;;;4.50;2.00;;;;;19.71;42.04;101846.16;4968904;28;51123;-56
2021/11/07 07:14:15;;;;;;;;;3.75;3.75;;;;;19.72;42.20;101838.75;4961815;28;51703;-56
2021/11/07 07:27:14;;;;;;;;;5.50;4.00;;;;;19.72;42.33;101847.00;4971464;28;50950;-56
2021/11/07 07:34:31;;;;;;;;;3.50;3.00;;;;;19.99;42.62;101849.00;4961810;28;51054;-57
2021/11/07 07:36:56;;;;;;;;;3.75;3.50;;;;;20.09;42.52;101852.28;4956231;28;51137;-52
2021/11/07 07:39:22;;;;;;;;;6.25;4.00;;;;;20.18;42.51;101853.84;4955749;28;51024;-54
2021/11/07 07:41:47;;;;;;;;;3.00;3.00;;;;;20.28;42.19;101852.69;4978573;28;51231;-54
2021/11/07 07:44:13;;;;;;;;;4.25;3.50;;;;;20.38;41.91;101847.69;4976281;28;51201;-52
2021/11/07 07:46:42;;;;;;;;;4.00;3.00;;;;;20.45;42.23;101855.00;4954961;28;51109;-57
2021/11/07 07:49:09;;;;;;;;;2.25;2.00;;;;;20.54;42.13;101858.47;4972424;28;51234;-54
2021/11/07 07:51:35;;;;;;;;;3.25;2.50;;;;;20.63;42.02;101862.75;4973620;28;51160;-56
2021/11/07 07:54:02;;;;;;;;;3.25;3.25;;;;;20.70;42.22;101863.69;4968769;28;51277;-57
2021/11/07 07:56:31;;;;;;;;;2.00;2.00;;;;;20.80;41.56;101851.47;4959053;28;51104;-56
2021/11/07 07:58:57;;;;;;;;;4.75;4.00;;;;;20.87;41.55;101844.13;4954632;28;51174;-55
2021/11/07 08:01:24;;;;;;;;;3.25;3.00;;;;;20.94;41.91;101833.97;4965170;28;51010;-57
2021/11/07 08:03:50;;;;;;;;;4.00;2.00;;;;;21.02;41.39;101840.19;4958443;28;51933;-55
2021/11/07 08:06:16;;;;;;;;;3.00;2.00;;;;;21.10;41.41;101841.94;4958153;28;51366;-55
2021/11/07 08:08:41;;;;;;;;;3.50;1.75;;;;;21.18;41.26;101847.28;4966360;28;51218;-54
2021/11/07 08:11:06;;;;;;;;;2.75;2.00;;;;;21.25;41.59;101856.44;4956161;28;51047;-55
2021/11/07 08:13:32;;;;;;;;;1.00;1.00;;;;;21.33;41.27;101842.53;4958385;28;52056;-53
2021/11/07 08:15:58;;;;;;;;;2.75;2.75;;;;;21.40;41.15;101850.84;4960133;28;51003;-53
2021/11/07 08:18:23;;;;;;;;;3.25;3.00;;;;;21.48;41.54;101855.34;4958576;28;51154;-53
2021/11/07 08:20:49;;;;;;;;;2.00;2.00;;;;;21.55;41.49;101861.69;4943428;28;52280;-54
2021/11/07 08:23:16;;;;;;;;;5.00;3.00;;;;;21.58;41.40;101853.91;4945055;28;51924;-55
2021/11/07 08:25:43;;;;;;;;;3.00;3.00;;;;;21.59;41.41;101858.34;4944238;28;51925;-56
2021/11/07 08:28:09;;;;;;;;;2.75;2.75;;;;;21.60;41.13;101845.41;4949746;28;52310;-54
2021/11/07 08:30:40;;;;;;;;;1.50;1.25;;;;;21.58;40.95;101836.50;4944315;28;51372;-54
2021/11/07 08:33:06;;;;;;;;;3.00;2.00;;;;;21.57;40.95;101843.94;4949293;28;52083;-51
2021/11/07 08:35:34;;;;;;;;;4.00;3.00;;;;;21.55;41.42;101846.00;4941304;28;52406;-53
2021/11/07 08:38:04;;;;;;;;;4.00;2.75;;;;;21.53;41.16;101837.09;4939962;28;51362;-52
2021/11/07 08:40:33;;;;;;;;;2.00;2.00;;;;;21.51;41.00;101830.94;4941304;28;51321;-53
2021/11/07 09:05:00;;;;;;;;;3.25;3.25;;;;;21.96;40.97;101824.94;4950221;28;51881;-58
2021/11/07 09:07:38;;;;;;;;;4.75;4.00;;;;;21.94;41.08;101816.03;4943509;28;51443;-58
2021/11/07 09:10:19;;;;;;;;;4.50;2.75;;;;;21.89;41.45;101817.50;4956945;28;51348;-56
2021/11/07 09:12:46;;;;;;;;;2.75;2.75;;;;;21.85;40.93;101821.72;4958841;28;51313;-57
2021/11/07 09:15:18;;;;;;;;;4.00;4.00;;;;;21.82;41.22;101824.06;4957918;28;52093;-58
2021/11/07 09:17:44;;;;;;;;;2.75;2.00;;;;;21.75;41.63;101815.75;4961343;28;51065;-56
2021/11/07 09:20:17;;;;;;;;;3.75;3.00;;;;;21.73;41.08;101811.50;4955606;28;51185;-55
2021/11/07 09:22:47;;;;;;;;;4.00;3.00;;;;;21.73;41.10;101817.88;4955666;28;52076;-57
2021/11/07 09:25:26;;;;;;;;;5.00;3.00;;;;;21.76;41.61;101822.97;4957404;28;51760;-58
2021/11/07 09:27:56;;;;;;;;;5.25;2.75;;;;;21.82;41.18;101819.41;4963761;28;51389;-57
2021/11/07 09:30:49;;;;;;;;;4.00;2.75;;;;;21.86;41.32;101809.63;4954184;28;51100;-56
2021/11/07 09:33:22;;;;;;;;;2.25;2.25;;;;;21.93;41.37;101823.44;4956667;27;51416;-57
2021/11/07 09:38:33;;;;;;;;;2.50;1.75;;;;;22.02;41.58;101810.31;4956292;28;51145;-54
2021/11/07 09:41:24;;;;;;;;;3.00;2.00;;;;;22.07;41.05;101814.16;4955446;28;50995;-54
2021/11/07 09:43:57;;;;;;;;;3.00;3.00;;;;;22.12;41.60;101814.41;4959570;28;51077;-52
2021/11/07 09:46:35;;;;;;;;;2.75;2.75;;;;;22.13;41.56;101821.63;4970869;28;52102;-59
2021/11/07 09:49:14;;;;;;;;;3.50;3.00;;;;;22.13;41.25;101810.59;4957949;28;51484;-58
2021/11/07 09:51:42;;;;;;;;;4.25;3.00;;;;;22.10;40.95;101826.72;4960010;28;51124;-58
2021/11/07 09:54:08;;;;;;;;;2.00;2.00;;;;;22.06;41.30;101831.78;4963071;28;51461;-57
2021/11/07 09:56:34;;;;;;;;;3.00;3.00;;;;;22.04;41.06;101838.53;4957271;28;51227;-57
2021/11/07 09:59:00;;;;;;;;;4.25;3.25;;;;;22.01;41.65;101833.47;4961616;28;51298;-57
2021/11/07 10:01:29;;;;;;;;;3.25;3.25;;;;;21.99;41.61;101825.41;4955536;28;51299;-56
2021/11/07 10:03:55;;;;;;;;;3.00;3.00;;;;;21.97;41.73;101832.16;4965369;28;51250;-57
2021/11/07 10:06:29;;;;;;;;;4.00;3.00;;;;;21.94;41.12;101827.91;4977870;28;51585;-57
2021/11/07 10:09:00;;;;;;;;;3.75;2.00;;;;;21.94;41.11;101836.19;4955032;28;52005;-56
2021/11/07 10:11:32;;;;;;;;;3.00;3.00;;;;;21.97;41.24;101838.53;4950962;28;51521;-57
2021/11/07 10:14:19;;;;;;;;;3.25;2.25;;;;;22.04;41.54;101838.53;4959275;28;51272;-57
2021/11/07 10:16:52;;;;;;;;;2.25;2.00;;;;;22.09;41.23;101836.03;4960127;28;51895;-56
2021/11/07 10:19:26;;;;;;;;;3.25;1.75;;;;;22.15;40.93;101840.72;4966366;28;51514;-56
2021/11/07 10:21:53;;;;;;;;;3.25;2.50;;;;;22.19;40.80;101847.50;4958498;28;51875;-55
2021/11/07 10:24:24;;;;;;;;;3.75;2.00;;;;;22.25;41.33;101832.88;4964474;28;51412;-55
2021/11/07 10:27:06;;;;;;;;;3.00;2.00;;;;;22.31;41.28;101845.00;4961828;28;51836;-54
2021/11/07 10:29:45;;;;;;;;;3.25;2.00;;;;;22.34;40.86;101837.13;4958049;28;51546;-55
2021/11/07 10:32:32;;;;;;;;;2.00;1.00;;;;;22.34;40.68;101828.00;4957554;28;51372;-54
2021/11/07 10:46:32;;;;;;;;;4.25;1.50;;;;;22.14;41.20;101852.81;4957086;28;51279;-57
2021/11/07 10:54:25;;;;;;;;;1.00;1.00;;;;;22.03;40.66;101859.78;4959457;28;51227;-55
2021/11/07 10:57:31;;;;;;;;;4.00;2.00;;;;;22.05;40.58;101860.41;4955731;27;51097;-58
2021/11/07 11:00:12;;;;;;;;;2.75;1.00;;;;;22.12;40.57;101852.19;5059596;28;52754;-55
2021/11/07 11:02:43;;;;;;;;;2.00;2.00;;;;;22.17;40.57;101841.34;5063893;27;51040;-53
2021/11/07 11:05:19;;;;;;;;;4.00;1.50;;;;;22.24;40.68;101850.50;4991512;27;51758;-57
2021/11/07 11:07:57;;;;;;;;;1.75;1.75;;;;;22.31;40.37;101850.53;4957527;28;51187;-54
2021/11/07 11:10:33;;;;;;;;;2.25;1.00;;;;;22.37;40.41;101839.47;4955947;28;51685;-54
2021/11/07 11:22:33;;;;;;;;;2.50;2.50;;;;;22.38;43.28;101832.88;4962929;28;52806;-53
2021/11/07 11:28:17;;;;;;;;;2.25;2.00;;;;;22.31;42.31;101843.09;4956585;28;50987;-57
2021/11/07 11:31:02;;;;;;;;;3.00;3.00;;;;;22.24;42.69;101828.44;4957663;28;50981;-57
2021/11/07 11:38:58;;;;;;;;;2.25;2.25;;;;;22.35;43.58;101813.16;4995003;28;51290;-58
2021/11/07 11:41:31;;;;;;;;;4.50;2.00;;;;;22.40;43.17;101814.19;4960125;28;51374;-58
2021/11/07 11:43:59;;;;;;;;;3.25;3.25;;;;;22.47;43.78;101809.53;4963028;28;51861;-59
2021/11/07 11:46:52;;;;;;;;;4.00;2.25;;;;;22.50;43.51;101808.25;4957230;28;51536;-57
2021/11/07 11:49:52;;;;;;;;;3.75;3.75;;;;;22.51;43.56;101798.94;4966890;28;51405;-58
2021/11/07 11:52:35;;;;;;;;;4.50;4.00;;;;;22.50;43.37;101808.25;4956218;28;51289;-58
2021/11/07 12:03:08;;;;;;;;;2.50;2.25;;;;;22.39;43.68;101806.97;4952877;28;51844;-59
2021/11/07 12:05:43;;;;;;;;;2.00;2.00;;;;;22.37;44.08;101799.97;4957238;28;51195;-59
2021/11/07 12:08:12;;;;;;;;;2.00;2.00;;;;;22.37;44.39;101805.50;4952063;28;51034;-58
2021/11/07 12:10:44;;;;;;;;;2.50;2.50;;;;;22.39;45.07;101806.97;4960855;28;51098;-58
2021/11/07 12:13:43;;;;;;;;;3.75;3.75;;;;;22.44;44.20;101804.44;4961547;28;51293;-58
2021/11/07 12:16:15;;;;;;;;;3.50;2.50;;;;;22.50;44.52;101810.16;4963528;28;51796;-58
2021/11/07 12:19:06;;;;;;;;;6.25;1.25;;;;;22.57;44.01;101811.03;4976725;28;51032;-58
2021/11/07 12:22:02;;;;;;;;;2.50;2.00;;;;;22.63;44.10;101801.91;4963662;28;51043;-58
2021/11/07 12:24:48;;;;;;;;;2.50;2.50;;;;;22.69;44.05;101799.09;4958589;28;51210;-58
2021/11/07 12:27:35;;;;;;;;;3.50;2.50;;;;;22.75;44.55;101787.22;4960237;28;51220;-58
2021/11/07 12:30:15;;;;;;;;;2.25;2.00;;;;;22.83;44.34;101788.91;4952518;28;51017;-58
2021/11/07 12:32:47;;;;;;;;;2.25;2.00;;;;;22.89;44.30;101792.75;4957321;28;51006;-58
2021/11/07 12:35:22;;;;;;;;;3.25;3.25;;;;;22.93;43.63;101794.88;4955454;28;51225;-58
2021/11/07 12:41:06;;;;;;;;;2.00;2.00;;;;;23.01;43.74;101802.91;4954765;28;51538;-59
2021/11/07 12:43:33;;;;;;;;;1.25;1.25;;;;;23.06;43.10;101799.50;4970797;28;51141;-59
2021/11/07 12:46:56;;;;;;;;;3.00;2.00;;;;;23.11;43.02;101783.09;4956595;28;51813;-59
2021/11/07 12:49:27;;;;;;;;;3.25;2.00;;;;;23.16;42.95;101782.47;5030871;28;51206;-57
2021/11/07 12:52:07;;;;;;;;;2.00;2.00;;;;;23.19;43.18;101784.78;4968301;28;51262;-58
2021/11/07 12:54:38;;;;;;;;;3.00;1.25;;;;;23.23;43.20;101780.50;4954619;28;51147;-58
2021/11/07 12:57:05;;;;;;;;;2.75;2.25;;;;;23.28;42.80;101781.56;4953447;28;52552;-57
2021/11/07 12:59:33;;;;;;;;;3.75;2.00;;;;;23.32;42.39;101781.97;4955541;28;51922;-57
2021/11/07 13:02:05;;;;;;;;;1.75;1.75;;;;;23.35;42.33;101784.31;4959583;28;51387;-58
2021/11/07 13:04:43;;;;;;;;;2.00;1.00;;;;;23.38;42.47;101783.03;4964971;28;51557;-56
2021/11/07 13:07:19;;;;;;;;;4.75;2.25;;;;;23.39;42.34;101790.25;4963819;28;51065;-56
2021/11/07 13:09:53;;;;;;;;;3.00;1.50;;;;;23.37;42.26;101792.38;4956138;28;52084;-55
2021/11/07 13:12:24;;;;;;;;;3.00;2.00;;;;;23.33;41.92;101789.19;4970566;28;51235;-56
2021/11/07 13:15:19;;;;;;;;;2.00;2.00;;;;;23.28;41.78;101789.00;4965302;28;51153;-55
2021/11/07 13:34:29;;;;;;;;;3.00;3.00;;;;;22.86;42.10;101777.44;4956131;28;51058;-57
2021/11/07 13:36:57;;;;;;;;;2.25;2.00;;;;;22.82;41.84;101783.56;4955172;28;51151;-56
2021/11/07 13:39:30;;;;;;;;;2.75;2.75;;;;;22.77;42.01;101778.72;4955554;28;51185;-56
2021/11/07 13:42:06;;;;;;;;;6.00;2.25;;;;;22.74;42.22;101780.00;4967589;28;52021;-56
2021/11/07 13:45:02;;;;;;;;;3.00;1.00;;;;;22.75;42.01;101783.59;4969369;28;51068;-56
2021/11/07 13:47:36;;;;;;;;;2.00;2.00;;;;;22.80;42.20;101769.13;4972833;28;51640;-57
2021/11/07 13:50:05;;;;;;;;;4.25;2.00;;;;;22.85;42.31;101767.47;4963767;28;51445;-57
2021/11/07 13:52:32;;;;;;;;;2.25;2.25;;;;;22.89;41.93;101765.97;4954885;28;51033;-56